createdAt,value
2022-08-22T00:02:17.980Z,2.38
2022-08-22T00:02:49.791Z,2.00
2022-08-22T00:03:00.776Z,2.17
2022-08-22T00:03:09.411Z,2.33
2022-08-22T00:04:56.804Z,1.83
2022-08-22T00:07:48.074Z,2.28
2022-08-22T00:10:25.464Z,1.60
2022-08-22T00:13:15.270Z,1.98
2022-08-22T00:15:58.239Z,1.88
2022-08-22T00:18:37.437Z,2.17
2022-08-22T00:21:54.919Z,2.25
2022-08-22T00:24:48.040Z,1.77
2022-08-22T00:27:20.725Z,1.90
2022-08-22T00:30:11.122Z,1.95
2022-08-22T00:32:59.510Z,2.30
2022-08-22T00:35:40.587Z,2.30
2022-08-22T00:38:30.557Z,2.00
2022-08-22T00:41:21.529Z,2.30
2022-08-22T00:43:57.179Z,2.08
2022-08-22T00:46:32.844Z,2.17
2022-08-22T00:49:32.905Z,2.38
2022-08-22T00:52:38.360Z,2.97
2022-08-22T00:55:34.955Z,2.20
2022-08-22T00:58:32.701Z,2.33
2022-08-22T01:01:06.906Z,2.30
2022-08-22T01:03:48.539Z,2.03
2022-08-22T01:09:05.991Z,2.15
2022-08-22T01:11:44.764Z,2.10
2022-08-22T01:14:36.838Z,2.33
2022-08-22T01:17:25.147Z,2.30
2022-08-22T01:20:22.307Z,2.08
2022-08-22T01:23:26.382Z,2.50
2022-08-22T01:26:36.265Z,2.28
2022-08-22T01:29:27.692Z,2.15
2022-08-22T01:31:58.237Z,1.92
2022-08-22T01:34:52.860Z,2.65
2022-08-22T01:37:43.664Z,2.35
2022-08-22T01:40:35.294Z,2.45
2022-08-22T01:43:59.930Z,2.50
2022-08-22T01:46:50.335Z,2.17
2022-08-22T01:49:39.657Z,2.20
2022-08-22T01:52:28.958Z,2.55
2022-08-22T01:55:22.744Z,2.55
2022-08-22T01:57:56.094Z,2.28
2022-08-22T02:00:34.804Z,2.70
2022-08-22T02:03:19.548Z,2.53
2022-08-22T02:06:07.293Z,2.50
2022-08-22T02:08:46.612Z,2.38
2022-08-22T02:11:35.373Z,2.17
2022-08-22T02:14:30.553Z,3.25
2022-08-22T02:17:24.936Z,2.40
2022-08-22T02:19:58.202Z,2.45
2022-08-22T02:23:03.268Z,2.40
2022-08-22T02:25:46.307Z,2.40
2022-08-22T02:28:19.869Z,2.28
2022-08-22T02:30:52.183Z,2.60
2022-08-22T02:33:32.547Z,2.28
2022-08-22T02:36:18.455Z,2.28
2022-08-22T02:39:28.509Z,2.60
2022-08-22T02:42:03.508Z,1.80
2022-08-22T02:44:41.932Z,2.20
2022-08-22T02:47:31.220Z,2.42
2022-08-22T02:50:05.769Z,2.88
2022-08-22T02:52:46.754Z,2.45
2022-08-22T02:55:19.940Z,2.78
2022-08-22T02:58:01.069Z,2.55
2022-08-22T03:00:44.108Z,2.45
2022-08-22T03:03:24.926Z,2.40
2022-08-22T03:06:33.290Z,2.50
2022-08-22T03:09:08.008Z,2.53
2022-08-22T03:11:39.422Z,2.65
2022-08-22T03:14:13.904Z,2.65
2022-08-22T03:16:46.211Z,2.60
2022-08-22T03:19:19.369Z,2.13
2022-08-22T03:22:13.695Z,2.47
2022-08-22T03:24:55.502Z,2.83
2022-08-22T03:27:32.859Z,2.40
2022-08-22T03:30:12.277Z,2.50
2022-08-22T03:32:50.940Z,2.92
2022-08-22T03:35:44.020Z,2.67
2022-08-22T03:38:45.815Z,2.85
2022-08-22T03:41:42.343Z,3.03
2022-08-22T03:44:42.746Z,2.72
2022-08-22T03:47:50.330Z,2.72
2022-08-22T03:50:35.878Z,3.08
2022-08-22T03:53:31.428Z,2.85
2022-08-22T03:56:09.987Z,3.03
2022-08-22T03:58:54.779Z,3.00
2022-08-22T04:01:57.883Z,2.45
2022-08-22T04:05:02.516Z,2.95
2022-08-22T04:08:06.536Z,3.00
2022-08-22T04:10:51.593Z,3.45
2022-08-22T04:13:40.812Z,2.88
2022-08-22T04:16:44.697Z,2.92
2022-08-22T04:19:48.671Z,2.92
2022-08-22T04:23:01.576Z,2.90
2022-08-22T04:25:36.376Z,2.88
2022-08-22T04:28:15.364Z,2.90
2022-08-22T04:31:10.183Z,3.30
2022-08-22T04:33:56.615Z,3.08
2022-08-22T04:36:45.974Z,3.03
2022-08-22T04:39:21.797Z,2.72
2022-08-22T04:42:31.251Z,2.63
2022-08-22T04:45:02.407Z,2.90
2022-08-22T04:47:36.819Z,2.80
2022-08-22T04:50:28.332Z,2.83
2022-08-22T04:52:59.429Z,3.17
2022-08-22T04:55:32.442Z,3.17
2022-08-22T04:58:13.495Z,2.65
2022-08-22T05:00:54.802Z,2.97
2022-08-22T05:03:25.636Z,2.72
2022-08-22T05:05:55.625Z,3.03
2022-08-22T05:08:26.568Z,2.67
2022-08-22T05:10:54.488Z,2.63
2022-08-22T05:13:30.597Z,2.33
2022-08-22T05:16:03.021Z,3.50
2022-08-22T05:18:37.665Z,2.63
2022-08-22T05:21:08.806Z,2.58
2022-08-22T05:23:42.965Z,3.08
2022-08-22T05:26:13.516Z,3.22
2022-08-22T05:28:57.876Z,3.28
2022-08-22T05:31:35.046Z,3.47
2022-08-22T05:34:11.225Z,3.50
2022-08-22T05:36:46.275Z,2.83
2022-08-22T05:39:25.424Z,2.70
2022-08-22T05:44:28.256Z,2.88
2022-08-22T05:47:07.572Z,2.33
2022-08-22T05:49:44.982Z,3.00
2022-08-22T05:52:41.784Z,2.65
2022-08-22T05:55:25.010Z,2.70
2022-08-22T05:58:02.905Z,2.92
2022-08-22T06:00:37.076Z,2.88
2022-08-22T06:03:09.614Z,3.78
2022-08-22T06:05:41.869Z,3.25
2022-08-22T06:08:20.223Z,3.53
2022-08-22T06:10:56.863Z,3.35
2022-08-22T06:13:52.905Z,3.40
2022-08-22T06:16:30.602Z,3.72
2022-08-22T06:18:57.981Z,4.25
2022-08-22T06:21:38.533Z,3.45
2022-08-22T06:24:09.829Z,5.03
2022-08-22T06:26:39.984Z,3.95
2022-08-22T06:29:08.506Z,3.85
2022-08-22T06:31:42.105Z,4.95
2022-08-22T06:34:16.428Z,3.75
2022-08-22T06:36:49.636Z,4.20
2022-08-22T06:39:31.117Z,4.65
2022-08-22T06:42:01.030Z,5.55
2022-08-22T06:44:31.865Z,3.80
2022-08-22T06:47:01.159Z,5.07
2022-08-22T06:49:30.253Z,4.32
2022-08-22T06:52:01.755Z,5.65
2022-08-22T06:57:03.523Z,5.20
2022-08-22T06:59:33.009Z,2.58
2022-08-22T07:02:09.608Z,5.25
2022-08-22T07:04:37.207Z,2.95
2022-08-22T07:07:03.835Z,3.65
2022-08-22T07:09:38.934Z,3.45
2022-08-22T07:12:14.020Z,4.47
2022-08-22T07:14:44.417Z,4.45
2022-08-22T07:17:46.442Z,6.38
2022-08-22T07:20:24.171Z,5.55
2022-08-22T07:23:03.454Z,4.53
2022-08-22T07:25:31.663Z,5.05
2022-08-22T07:27:58.162Z,5.03
2022-08-22T07:30:28.978Z,4.75
2022-08-22T07:33:25.202Z,3.72
2022-08-22T07:35:55.381Z,3.58
2022-08-22T07:38:45.261Z,4.60
2022-08-22T07:41:29.548Z,4.80
2022-08-22T07:44:05.088Z,4.40
2022-08-22T07:49:49.710Z,3.38
2022-08-22T07:52:17.275Z,3.20
2022-08-22T07:54:50.203Z,4.18
2022-08-22T07:57:34.974Z,3.53
2022-08-22T08:00:10.928Z,4.90
2022-08-22T08:02:45.303Z,5.63
2022-08-22T08:05:14.295Z,5.68
2022-08-22T08:07:45.351Z,5.22
2022-08-22T08:10:17.655Z,6.60
2022-08-22T08:12:57.984Z,5.05
2022-08-22T08:15:32.923Z,6.70
2022-08-22T08:18:05.365Z,5.60
2022-08-22T08:20:35.499Z,5.13
2022-08-22T08:23:09.218Z,4.20
2022-08-22T08:26:10.438Z,6.43
2022-08-22T08:28:49.828Z,4.47
2022-08-22T08:31:35.402Z,6.43
2022-08-22T08:34:12.286Z,6.35
2022-08-22T08:37:12.854Z,3.65
2022-08-22T08:39:48.428Z,5.03
2022-08-22T08:43:10.811Z,5.45
2022-08-22T08:45:50.100Z,3.08
2022-08-22T08:48:26.137Z,4.30
2022-08-22T08:51:14.548Z,3.47
2022-08-22T08:54:16.023Z,5.07
2022-08-22T08:57:04.415Z,5.85
2022-08-22T08:59:56.181Z,3.30
2022-08-22T09:02:47.755Z,4.38
2022-08-22T09:05:29.876Z,4.00
2022-08-22T09:08:34.795Z,4.32
2022-08-22T09:11:30.153Z,2.75
2022-08-22T09:14:02.449Z,2.78
2022-08-22T09:16:29.744Z,3.40
2022-08-22T09:18:59.159Z,3.42
2022-08-22T09:22:01.526Z,2.58
2022-08-22T09:24:46.899Z,3.55
2022-08-22T09:27:18.413Z,2.38
2022-08-22T09:29:59.960Z,2.50
2022-08-22T09:32:38.404Z,2.72
2022-08-22T09:35:11.589Z,2.85
2022-08-22T09:37:44.003Z,2.90
2022-08-22T09:40:25.186Z,2.28
2022-08-22T09:48:26.655Z,1.92
2022-08-22T09:51:31.856Z,2.38
2022-08-22T09:54:11.702Z,2.58
2022-08-22T09:56:48.433Z,2.33
2022-08-22T09:59:38.973Z,2.03
2022-08-22T10:02:24.124Z,1.88
2022-08-22T10:05:07.251Z,2.67
2022-08-22T10:07:58.567Z,2.47
2022-08-22T10:13:03.335Z,2.10
2022-08-22T10:15:42.030Z,1.95
2022-08-22T10:18:33.415Z,1.60
2022-08-22T10:21:11.807Z,1.95
2022-08-22T10:23:48.503Z,1.65
2022-08-22T10:26:43.482Z,2.45
2022-08-22T10:29:31.991Z,1.90
2022-08-22T10:32:27.395Z,2.28
2022-08-22T10:34:59.313Z,1.77
2022-08-22T10:37:32.475Z,2.38
2022-08-22T10:40:11.100Z,1.80
2022-08-22T10:42:51.644Z,2.08
2022-08-22T10:45:36.598Z,2.25
2022-08-22T10:48:08.022Z,2.05
2022-08-22T10:50:44.757Z,2.17
2022-08-22T10:53:33.451Z,2.05
2022-08-22T10:56:13.314Z,2.33
2022-08-22T10:59:19.489Z,2.03
2022-08-22T11:02:08.206Z,2.28
2022-08-22T11:04:40.929Z,2.22
2022-08-22T11:07:39.666Z,1.85
2022-08-22T11:10:45.116Z,1.90
2022-08-22T11:13:25.368Z,2.33
2022-08-22T11:16:06.916Z,1.83
2022-08-22T11:19:02.731Z,1.75
2022-08-22T11:22:06.828Z,2.47
2022-08-22T11:25:07.358Z,1.80
2022-08-22T11:28:04.937Z,1.90
2022-08-22T11:30:57.742Z,2.10
2022-08-22T11:33:39.107Z,2.00
2022-08-22T11:36:31.045Z,2.17
2022-08-22T11:39:09.954Z,2.10
2022-08-22T11:41:45.373Z,1.90
2022-08-22T11:44:31.319Z,1.85
2022-08-22T11:47:01.671Z,1.50
2022-08-22T11:49:43.427Z,1.90
2022-08-22T11:52:29.168Z,1.85
2022-08-22T11:55:32.539Z,1.98
2022-08-22T11:58:27.248Z,2.42
2022-08-22T12:01:17.030Z,1.85
2022-08-22T12:03:58.195Z,1.75
2022-08-22T12:06:37.301Z,1.73
2022-08-22T12:09:17.939Z,2.08
2022-08-22T12:12:08.427Z,1.98
2022-08-22T12:14:54.707Z,2.03
2022-08-22T12:17:55.451Z,2.00
2022-08-22T12:20:25.979Z,1.95
2022-08-22T12:23:21.828Z,1.88
2022-08-22T12:26:43.748Z,2.05
2022-08-22T12:29:33.808Z,1.92
2022-08-22T12:32:01.568Z,2.13
2022-08-22T12:34:34.645Z,1.90
2022-08-22T12:37:10.059Z,2.40
2022-08-22T12:40:10.026Z,2.00
2022-08-22T12:42:49.327Z,1.70
2022-08-22T12:45:26.738Z,1.95
2022-08-22T12:47:53.288Z,2.05
2022-08-22T12:50:44.479Z,2.45
2022-08-22T12:53:20.622Z,2.15
2022-08-22T12:56:06.204Z,1.75
2022-08-22T12:59:05.916Z,1.77
2022-08-22T13:01:43.194Z,1.70
2022-08-22T13:04:32.479Z,2.00
2022-08-22T13:07:02.966Z,1.80
2022-08-22T13:09:33.855Z,2.00
2022-08-22T13:12:21.110Z,1.70
2022-08-22T13:14:51.295Z,2.13
2022-08-22T13:17:24.588Z,2.20
2022-08-22T13:19:54.738Z,2.30
2022-08-22T13:22:27.378Z,1.52
2022-08-22T13:25:05.634Z,2.00
2022-08-22T13:27:51.045Z,1.70
2022-08-22T13:30:27.779Z,2.05
2022-08-22T13:33:02.775Z,1.50
2022-08-22T13:35:35.762Z,2.15
2022-08-22T13:38:13.291Z,2.42
2022-08-22T13:40:45.519Z,2.05
2022-08-22T13:43:19.519Z,2.22
2022-08-22T13:45:55.781Z,2.08
2022-08-22T13:48:28.465Z,2.22
2022-08-22T13:51:08.649Z,2.25
2022-08-22T13:53:50.429Z,1.77
2022-08-22T13:56:47.116Z,2.03
2022-08-22T13:59:50.100Z,2.33
2022-08-22T14:02:43.277Z,2.40
2022-08-22T14:05:16.725Z,2.58
2022-08-22T14:08:12.872Z,2.13
2022-08-22T14:10:46.466Z,2.28
2022-08-22T14:13:24.911Z,2.10
2022-08-22T14:16:12.083Z,2.13
2022-08-22T14:18:49.334Z,2.17
2022-08-22T14:21:41.302Z,2.03
2022-08-22T14:24:25.805Z,2.45
2022-08-22T14:26:58.426Z,2.20
2022-08-22T14:29:31.719Z,2.50
2022-08-22T14:32:49.222Z,2.80
2022-08-22T14:35:35.297Z,2.22
2022-08-22T14:38:30.245Z,2.47
2022-08-22T14:41:17.327Z,2.00
2022-08-22T14:43:58.285Z,1.77
2022-08-22T14:46:33.481Z,2.25
2022-08-22T14:49:03.081Z,1.60
2022-08-22T14:51:30.079Z,2.28
2022-08-22T14:54:21.272Z,2.53
2022-08-22T14:56:51.142Z,2.65
2022-08-22T14:59:52.501Z,2.30
2022-08-22T15:02:21.810Z,1.77
2022-08-22T15:04:54.044Z,2.20
2022-08-22T15:07:29.199Z,1.75
2022-08-22T15:10:20.810Z,2.50
2022-08-22T15:12:53.748Z,2.13
2022-08-22T15:15:49.582Z,2.35
2022-08-22T15:18:34.224Z,2.30
2022-08-22T15:21:11.332Z,2.35
2022-08-22T15:23:44.801Z,2.25
2022-08-22T15:26:32.812Z,1.70
2022-08-22T15:29:07.800Z,1.73
2022-08-22T15:31:36.511Z,1.95
2022-08-22T15:34:24.399Z,2.15
2022-08-22T15:37:07.877Z,1.98
2022-08-22T15:40:16.811Z,1.85
2022-08-22T15:42:50.612Z,2.25
2022-08-22T15:45:30.884Z,2.13
2022-08-22T15:48:04.521Z,2.08
2022-08-22T15:51:04.784Z,2.00
2022-08-22T15:53:44.816Z,2.05
2022-08-22T15:56:11.333Z,1.90
2022-08-22T15:58:48.724Z,2.45
2022-08-22T16:01:19.155Z,2.05
2022-08-22T16:04:06.764Z,2.28
2022-08-22T16:06:50.593Z,2.33
2022-08-22T16:09:46.179Z,1.80
2022-08-22T16:12:37.221Z,2.17
2022-08-22T16:17:42.642Z,2.40
2022-08-22T16:20:09.957Z,2.20
2022-08-22T16:22:55.925Z,2.33
2022-08-22T16:25:50.206Z,2.22
2022-08-22T16:28:57.722Z,2.25
2022-08-22T16:31:37.045Z,2.72
2022-08-22T16:34:16.146Z,2.50
2022-08-22T16:36:42.751Z,1.88
2022-08-22T16:39:21.554Z,2.15
2022-08-22T16:41:54.399Z,2.03
2022-08-22T16:44:29.842Z,2.17
2022-08-22T16:47:17.702Z,2.55
2022-08-22T16:49:50.273Z,2.15
2022-08-22T16:52:26.070Z,2.65
2022-08-22T16:55:05.811Z,2.03
2022-08-22T16:58:06.871Z,2.50
2022-08-22T17:00:36.431Z,2.40
2022-08-22T17:03:30.184Z,2.22
2022-08-22T17:06:34.396Z,2.50
2022-08-22T17:09:19.454Z,2.00
2022-08-22T17:12:11.596Z,2.13
2022-08-22T17:15:20.875Z,2.35
2022-08-22T17:18:01.682Z,2.28
2022-08-22T17:23:23.531Z,2.13
2022-08-22T17:26:07.619Z,2.15
2022-08-22T17:28:52.145Z,2.45
2022-08-22T17:31:36.968Z,2.05
2022-08-22T17:34:14.226Z,1.90
2022-08-22T17:36:56.047Z,2.00
2022-08-22T17:39:59.929Z,1.95
2022-08-22T17:42:29.541Z,2.15
2022-08-22T17:45:03.384Z,2.08
2022-08-22T17:47:59.359Z,2.45
2022-08-22T17:50:47.276Z,2.55
2022-08-22T17:53:28.593Z,2.08
2022-08-22T17:56:13.678Z,2.35
2022-08-22T17:58:53.468Z,2.05
2022-08-22T18:01:48.656Z,1.83
2022-08-22T18:04:43.286Z,1.83
2022-08-22T18:07:15.222Z,2.35
2022-08-22T18:09:50.522Z,1.95
2022-08-22T18:12:35.785Z,2.30
2022-08-22T18:15:09.156Z,2.20
2022-08-22T18:17:42.552Z,2.08
2022-08-22T18:20:24.735Z,2.00
2022-08-22T18:23:00.827Z,2.42
2022-08-22T18:26:02.260Z,2.13
2022-08-22T18:28:50.675Z,2.30
2022-08-22T18:31:54.022Z,2.03
2022-08-22T18:34:42.255Z,2.30
2022-08-22T18:37:30.804Z,2.47
2022-08-22T18:40:03.154Z,2.10
2022-08-22T18:42:32.800Z,2.67
2022-08-22T18:44:59.382Z,2.38
2022-08-22T18:47:33.023Z,2.08
2022-08-22T18:50:22.686Z,2.40
2022-08-22T18:52:51.236Z,2.00
2022-08-22T18:55:27.411Z,2.58
2022-08-22T18:58:18.858Z,2.30
2022-08-22T19:00:52.645Z,2.00
2022-08-22T19:03:28.981Z,2.28
2022-08-22T19:06:21.722Z,2.28
2022-08-22T19:09:12.871Z,2.20
2022-08-22T19:12:01.791Z,2.15
2022-08-22T19:14:55.968Z,2.25
2022-08-22T19:17:43.831Z,2.50
2022-08-22T19:20:55.427Z,2.80
2022-08-22T19:23:34.123Z,2.83
2022-08-22T19:26:25.979Z,2.63
2022-08-22T19:29:18.717Z,2.58
2022-08-22T19:31:48.285Z,2.58
2022-08-22T19:34:25.700Z,2.53
2022-08-22T19:37:32.972Z,2.42
2022-08-22T19:40:05.698Z,2.70
2022-08-22T19:42:36.388Z,2.35
2022-08-22T19:45:29.050Z,2.45
2022-08-22T19:48:14.078Z,2.53
2022-08-22T19:50:42.903Z,2.25
2022-08-22T19:53:09.727Z,2.53
2022-08-22T19:55:36.716Z,2.33
2022-08-22T19:58:31.934Z,2.75
2022-08-22T20:01:21.101Z,2.70
2022-08-22T20:03:57.832Z,2.30
2022-08-22T20:06:44.608Z,2.90
2022-08-22T20:09:50.129Z,2.72
2022-08-22T20:12:42.807Z,2.05
2022-08-22T20:15:20.352Z,2.53
2022-08-22T20:18:11.619Z,2.60
2022-08-22T20:20:38.571Z,2.42
2022-08-22T20:23:11.029Z,2.88
2022-08-22T20:25:52.795Z,1.98
2022-08-22T20:28:40.488Z,2.78
2022-08-22T20:31:12.336Z,2.05
2022-08-22T20:33:43.853Z,2.67
2022-08-22T20:36:28.584Z,2.15
2022-08-22T20:39:02.945Z,2.60
2022-08-22T20:41:40.559Z,2.17
2022-08-22T20:44:16.558Z,2.67
2022-08-22T20:46:46.093Z,2.50
2022-08-22T20:49:23.618Z,2.03
2022-08-22T20:51:57.390Z,2.80
2022-08-22T20:54:27.474Z,2.70
2022-08-22T20:56:56.974Z,2.38
2022-08-22T20:59:37.547Z,2.83
2022-08-22T21:02:19.812Z,2.40
2022-08-22T21:04:57.727Z,2.50
2022-08-22T21:07:40.559Z,3.35
2022-08-22T21:10:40.123Z,2.20
2022-08-22T21:13:22.311Z,2.28
2022-08-22T21:16:02.488Z,2.63
2022-08-22T21:18:33.512Z,2.70
2022-08-22T21:21:10.499Z,2.53
2022-08-22T21:23:49.393Z,2.40
2022-08-22T21:26:24.369Z,2.60
2022-08-22T21:28:50.878Z,2.03
2022-08-22T21:31:21.948Z,2.40
2022-08-22T21:33:50.445Z,2.47
2022-08-22T21:36:21.741Z,2.53
2022-08-22T21:41:27.076Z,2.22
2022-08-22T21:43:54.258Z,2.53
2022-08-22T21:46:26.529Z,2.33
2022-08-22T21:49:03.716Z,2.67
2022-08-22T21:51:36.316Z,2.47
2022-08-22T21:54:24.503Z,2.78
2022-08-22T21:56:53.467Z,2.55
2022-08-22T21:59:51.066Z,2.08
2022-08-22T22:02:40.236Z,2.65
2022-08-22T22:05:17.772Z,2.70
2022-08-22T22:07:46.426Z,2.70
2022-08-22T22:10:16.215Z,2.63
2022-08-22T22:12:44.938Z,2.40
2022-08-22T22:15:15.796Z,3.03
2022-08-22T22:17:43.268Z,2.70
2022-08-22T22:20:11.163Z,3.03
2022-08-22T22:22:46.073Z,2.58
2022-08-22T22:25:40.156Z,2.60
2022-08-22T22:28:05.385Z,2.60
2022-08-22T22:30:32.068Z,2.97
2022-08-22T22:32:58.708Z,3.45
2022-08-22T22:35:25.572Z,3.20
2022-08-22T22:37:52.306Z,3.17
2022-08-22T22:40:19.174Z,2.63
2022-08-22T22:42:45.867Z,3.28
2022-08-22T22:45:12.507Z,3.15
2022-08-22T22:47:39.223Z,2.65
2022-08-22T22:50:06.907Z,2.88
2022-08-22T22:52:33.597Z,2.95
2022-08-22T22:55:05.767Z,2.85
2022-08-22T22:57:32.462Z,2.92
2022-08-22T23:00:10.850Z,2.92
2022-08-22T23:02:37.444Z,3.00
2022-08-22T23:05:04.944Z,3.08
2022-08-22T23:07:33.752Z,2.88
2022-08-22T23:10:01.302Z,2.55
2022-08-22T23:12:28.296Z,3.67
2022-08-22T23:14:54.929Z,2.97
2022-08-22T23:17:21.524Z,2.92
2022-08-22T23:19:48.382Z,3.10
2022-08-22T23:22:14.981Z,3.25
2022-08-22T23:24:41.664Z,2.83
2022-08-22T23:27:10.135Z,3.08
2022-08-22T23:29:40.890Z,2.78
2022-08-22T23:32:09.184Z,3.10
2022-08-22T23:34:42.569Z,3.10
2022-08-22T23:37:11.617Z,2.95
2022-08-22T23:39:38.381Z,3.20
2022-08-22T23:42:07.252Z,2.90
2022-08-22T23:44:36.187Z,2.90
2022-08-22T23:47:04.542Z,3.28
2022-08-22T23:49:32.306Z,3.40
2022-08-22T23:51:59.627Z,3.15
2022-08-22T23:54:27.194Z,3.30
2022-08-22T23:56:57.616Z,2.65
2022-08-22T23:59:30.671Z,2.95
